Time;durP1;ratioP1;P1;durP2;ratioP2;P2;SDS_P1;SDS_P2;PMS_P1;PMS_P2;Temp;Humidity;BMP_temperature;BMP_pressure;BME280_temperature;BME280_humidity;BME280_pressure;Samples;Min_cycle;Max_cycle;Signal;HPM_P1;HPM_P2
2023/08/25 00:01:40;;;;;;;3.63;0.65;;;;;;;15.73;54.97;99681.38;5004510;28;20510;-43
2023/08/25 00:04:07;;;;;;;1.70;0.60;;;;;;;15.71;54.87;99685.81;5003800;28;20049;-43
2023/08/25 00:06:34;;;;;;;3.92;0.90;;;;;;;15.70;55.14;99678.91;5004718;28;20127;-43
2023/08/25 00:09:00;;;;;;;2.45;0.57;;;;;;;15.68;55.53;99684.16;5004122;28;20521;-43
2023/08/25 00:11:27;;;;;;;1.90;0.55;;;;;;;15.65;55.22;99681.63;5004564;28;20046;-44
2023/08/25 00:13:54;;;;;;;2.00;1.38;;;;;;;15.60;55.45;99679.16;5004184;28;20104;-43
2023/08/25 00:16:20;;;;;;;3.70;0.98;;;;;;;15.59;55.65;99677.44;5004541;28;20049;-43
2023/08/25 00:18:48;;;;;;;3.28;0.77;;;;;;;15.56;55.50;99680.16;5002376;28;20509;-45
2023/08/25 00:21:14;;;;;;;2.90;0.95;;;;;;;15.51;55.59;99680.28;5009843;28;20457;-45
2023/08/25 00:23:41;;;;;;;3.28;0.80;;;;;;;15.50;55.85;99677.72;5007583;28;20054;-43
2023/08/25 00:26:08;;;;;;;3.78;1.73;;;;;;;15.47;56.08;99673.44;5010218;28;20049;-44
2023/08/25 00:28:35;;;;;;;5.15;0.73;;;;;;;15.47;55.77;99677.81;5009661;28;20121;-44
2023/08/25 00:31:02;;;;;;;2.33;1.23;;;;;;;15.45;55.65;99679.59;5009839;28;20069;-43
2023/08/25 00:33:29;;;;;;;2.55;1.00;;;;;;;15.40;55.71;99677.16;5009573;28;20046;-43
2023/08/25 00:35:57;;;;;;;2.38;0.65;;;;;;;15.37;56.01;99683.28;5010285;28;20092;-46
2023/08/25 00:38:28;;;;;;;2.08;0.75;;;;;;;15.34;55.59;99678.16;5007327;28;20054;-42
2023/08/25 00:40:55;;;;;;;1.20;0.82;;;;;;;15.29;55.99;99674.81;5009796;28;20493;-42
2023/08/25 00:43:22;;;;;;;2.75;0.77;;;;;;;15.24;55.89;99674.09;5012399;28;20050;-45
2023/08/25 00:45:50;;;;;;;3.65;0.90;;;;;;;15.21;56.24;99671.56;5006123;28;20049;-44
2023/08/25 00:48:18;;;;;;;3.53;1.15;;;;;;;15.18;56.12;99679.47;5004508;28;20046;-44
2023/08/25 00:50:46;;;;;;;3.45;0.95;;;;;;;15.11;56.22;99671.84;5009171;28;20046;-43
2023/08/25 00:53:13;;;;;;;4.57;1.13;;;;;;;15.08;56.08;99669.31;5010299;28;20042;-45
2023/08/25 00:55:44;;;;;;;2.65;1.58;;;;;;;15.01;56.13;99670.38;5003768;28;20065;-42
2023/08/25 00:58:13;;;;;;;4.75;1.20;;;;;;;14.95;56.34;99668.78;5008352;28;20116;-44
2023/08/25 01:00:43;;;;;;;3.67;1.17;;;;;;;14.89;56.31;99667.19;5009873;28;20516;-43
2023/08/25 01:03:11;;;;;;;3.50;0.73;;;;;;;14.84;56.67;99663.88;5010086;28;20049;-43
2023/08/25 01:05:39;;;;;;;4.20;0.90;;;;;;;14.80;56.70;99671.81;5006690;28;20410;-46
2023/08/25 01:08:07;;;;;;;2.00;0.55;;;;;;;14.76;56.60;99671.00;5006443;28;20046;-43
2023/08/25 01:13:36;;;;;;;2.03;0.55;;;;;;;14.64;56.54;99667.81;5089674;27;20392;-44
2023/08/25 01:16:07;;;;;;;3.13;0.90;;;;;;;14.62;57.38;99667.00;5044996;28;20077;-43
2023/08/25 01:18:37;;;;;;;1.75;0.60;;;;;;;14.59;57.21;99661.84;5046251;28;20079;-45
2023/08/25 01:21:05;;;;;;;2.20;0.50;;;;;;;14.56;57.04;99674.97;5044794;28;20124;-44
2023/08/25 01:23:44;;;;;;;1.25;0.50;;;;;;;14.50;57.01;99672.53;5040805;28;20077;-42
2023/08/25 01:26:12;;;;;;;4.00;0.70;;;;;;;14.46;57.17;99668.28;5040726;28;20409;-44
2023/08/25 01:28:40;;;;;;;1.85;0.40;;;;;;;14.40;57.22;99670.13;5043930;28;20592;-45
2023/08/25 01:31:08;;;;;;;4.30;0.75;;;;;;;14.37;57.26;99669.38;5043675;28;20049;-43
2023/08/25 01:33:35;;;;;;;2.85;0.65;;;;;;;14.34;57.54;99665.09;5043538;28;20060;-44
2023/08/25 01:36:17;;;;;;;1.13;0.55;;;;;;;14.27;57.94;99664.41;5044362;28;20049;-45
2023/08/25 01:38:55;;;;;;;1.75;0.40;;;;;;;14.24;57.28;99664.47;5033496;28;20051;-43
2023/08/25 01:41:29;;;;;;;1.48;0.77;;;;;;;14.22;57.75;99661.03;5041835;28;20045;-46
2023/08/25 01:43:59;;;;;;;1.48;0.40;;;;;;;14.20;57.88;99656.75;5037587;28;20049;-44
2023/08/25 01:46:28;;;;;;;5.57;0.57;;;;;;;14.18;57.57;99661.16;5044383;28;20479;-44
2023/08/25 01:48:58;;;;;;;1.90;0.70;;;;;;;14.16;57.94;99660.31;5040008;28;20045;-44
2023/08/25 01:51:24;;;;;;;2.67;2.05;;;;;;;14.13;57.96;99651.72;5039133;28;20675;-42
2023/08/25 01:53:54;;;;;;;1.38;0.60;;;;;;;14.13;57.62;99648.22;5048419;28;20473;-43
2023/08/25 01:56:22;;;;;;;1.73;0.50;;;;;;;14.12;57.43;99656.94;5042411;28;20077;-43
2023/08/25 01:58:49;;;;;;;1.73;0.50;;;;;;;14.11;58.42;99648.28;5043922;28;20045;-43
2023/08/25 02:01:16;;;;;;;2.90;0.55;;;;;;;14.08;58.04;99653.53;5026902;28;20060;-43
2023/08/25 02:03:43;;;;;;;2.83;0.80;;;;;;;14.09;58.50;99654.41;5032172;28;20080;-43
2023/08/25 02:06:10;;;;;;;1.77;0.57;;;;;;;14.06;58.17;99670.97;5043134;28;20427;-43
2023/08/25 02:08:38;;;;;;;1.27;1.02;;;;;;;14.03;58.31;99671.03;5041828;28;20069;-45
2023/08/25 02:11:04;;;;;;;1.02;0.50;;;;;;;14.00;57.84;99665.88;5041408;28;20053;-42
2023/08/25 02:13:31;;;;;;;1.83;0.40;;;;;;;13.96;58.10;99659.03;5040968;28;20144;-43
2023/08/25 02:15:58;;;;;;;1.70;0.50;;;;;;;13.93;58.20;99659.09;5042471;28;20493;-44
2023/08/25 02:18:25;;;;;;;1.20;0.85;;;;;;;13.90;58.22;99659.16;5041820;28;20088;-44
2023/08/25 02:20:55;;;;;;;5.10;0.73;;;;;;;13.84;57.73;99653.22;5039447;28;20072;-43
2023/08/25 02:23:23;;;;;;;1.50;0.52;;;;;;;13.78;59.04;99658.56;5033487;28;20080;-44
2023/08/25 02:25:51;;;;;;;4.00;0.60;;;;;;;13.74;58.46;99655.19;5028438;28;20053;-43
2023/08/25 02:28:18;;;;;;;5.68;0.63;;;;;;;13.72;58.46;99656.09;5049415;28;20524;-45
2023/08/25 02:30:45;;;;;;;1.10;0.60;;;;;;;13.70;58.57;99655.28;5046811;28;20133;-43
2023/08/25 02:33:12;;;;;;;3.28;0.57;;;;;;;13.67;57.84;99661.41;5047775;28;20413;-43
2023/08/25 02:35:40;;;;;;;1.63;0.60;;;;;;;13.62;58.50;99661.50;5043749;28;20053;-43
2023/08/25 02:38:10;;;;;;;1.60;0.70;;;;;;;13.58;58.90;99652.03;5049049;28;20045;-47
2023/08/25 02:40:38;;;;;;;4.70;0.50;;;;;;;13.53;58.28;99640.03;5047661;28;20136;-44
2023/08/25 02:43:07;;;;;;;5.72;0.82;;;;;;;13.50;58.93;99638.34;5044538;28;20409;-44
2023/08/25 02:45:35;;;;;;;2.33;0.98;;;;;;;13.47;58.99;99635.78;5044608;28;20470;-43
2023/08/25 02:48:03;;;;;;;2.08;1.05;;;;;;;13.43;58.66;99639.34;5040910;28;20057;-46
2023/08/25 02:50:31;;;;;;;3.88;0.52;;;;;;;13.41;59.12;99635.94;5045947;28;20068;-43
2023/08/25 02:52:58;;;;;;;4.05;0.60;;;;;;;13.38;58.53;99634.25;5048024;28;20077;-45
2023/08/25 02:55:25;;;;;;;2.97;1.08;;;;;;;13.34;59.39;99630.84;5046572;28;20045;-43
2023/08/25 02:57:52;;;;;;;3.47;0.60;;;;;;;13.32;58.79;99627.44;5045969;28;20548;-42
2023/08/25 03:00:23;;;;;;;1.73;0.50;;;;;;;13.31;58.60;99625.69;5048538;28;20524;-43
2023/08/25 03:02:51;;;;;;;2.95;0.47;;;;;;;13.28;59.39;99625.78;5048779;28;20067;-45
2023/08/25 03:05:18;;;;;;;3.38;0.50;;;;;;;13.25;58.76;99625.84;5039101;28;20045;-42
2023/08/25 03:07:45;;;;;;;1.13;0.85;;;;;;;13.23;59.56;99622.41;5047568;28;20549;-43
2023/08/25 03:10:12;;;;;;;2.47;0.50;;;;;;;13.21;59.31;99625.03;5046338;28;20048;-44
2023/08/25 03:12:39;;;;;;;3.10;0.70;;;;;;;13.19;59.63;99631.16;5047477;28;20048;-43
2023/08/25 03:15:07;;;;;;;3.35;0.70;;;;;;;13.18;59.19;99629.44;5050167;28;20048;-43
2023/08/25 03:17:34;;;;;;;1.98;0.47;;;;;;;13.14;59.01;99628.63;5048977;28;20520;-43
2023/08/25 03:20:02;;;;;;;6.60;0.60;;;;;;;13.14;59.10;99633.84;5052159;28;20409;-44
2023/08/25 03:22:29;;;;;;;1.02;0.47;;;;;;;13.14;58.99;99626.03;5044386;28;20048;-43
2023/08/25 03:24:56;;;;;;;1.23;0.45;;;;;;;13.14;60.27;99625.19;5049731;28;20119;-42
2023/08/25 03:27:22;;;;;;;1.08;0.47;;;;;;;13.11;59.53;99624.38;5048922;28;20060;-43
2023/08/25 03:29:49;;;;;;;3.70;0.52;;;;;;;13.09;59.82;99618.34;5048010;28;20045;-45
2023/08/25 03:32:15;;;;;;;3.22;0.60;;;;;;;13.09;60.20;99618.34;5046701;28;20052;-45
2023/08/25 03:34:42;;;;;;;1.90;0.50;;;;;;;13.10;59.41;99621.78;5048626;28;20049;-44
2023/08/25 03:37:11;;;;;;;2.95;0.47;;;;;;;13.07;60.01;99617.50;5048402;28;20497;-43
2023/08/25 03:39:38;;;;;;;3.75;0.60;;;;;;;13.08;59.43;99616.63;5048342;28;20044;-44
2023/08/25 03:42:05;;;;;;;2.60;0.80;;;;;;;13.08;60.27;99608.81;5047450;28;20043;-43
2023/08/25 03:44:32;;;;;;;2.70;0.60;;;;;;;13.07;60.34;99606.28;5046658;28;20053;-44
2023/08/25 03:46:58;;;;;;;2.08;0.63;;;;;;;13.06;60.53;99604.53;5041219;28;20045;-43
2023/08/25 03:49:28;;;;;;;5.20;0.70;;;;;;;13.03;59.89;99600.25;5045826;28;20059;-43
2023/08/25 03:51:56;;;;;;;3.28;0.93;;;;;;;13.02;59.30;99603.75;5048574;28;20044;-44
2023/08/25 03:54:23;;;;;;;4.80;0.73;;;;;;;13.00;60.01;99595.13;5047138;28;20049;-42
2023/08/25 03:56:49;;;;;;;4.93;0.85;;;;;;;12.98;59.72;99599.50;5042733;28;20077;-44
2023/08/25 03:59:16;;;;;;;2.42;0.55;;;;;;;12.95;61.01;99599.56;5047762;28;20057;-44
2023/08/25 04:01:43;;;;;;;1.73;0.57;;;;;;;12.94;61.02;99603.91;5043278;28;20048;-46
2023/08/25 04:04:09;;;;;;;1.10;0.50;;;;;;;12.92;59.74;99597.03;5043767;28;20072;-44
2023/08/25 04:06:36;;;;;;;1.83;0.63;;;;;;;12.90;60.81;99593.63;5045715;28;20470;-43
2023/08/25 04:09:03;;;;;;;4.10;0.60;;;;;;;12.89;60.54;99599.69;5041277;28;20473;-43
2023/08/25 04:11:29;;;;;;;3.63;2.20;;;;;;;12.87;60.37;99598.88;5040224;28;21277;-43
2023/08/25 04:13:56;;;;;;;2.33;0.45;;;;;;;12.88;59.96;99605.78;5046633;28;20053;-43
2023/08/25 04:16:23;;;;;;;1.77;0.50;;;;;;;12.87;61.12;99604.06;5045014;28;20088;-44
2023/08/25 04:18:49;;;;;;;2.10;0.80;;;;;;;12.85;61.00;99597.16;5048224;28;20084;-43
2023/08/25 04:21:16;;;;;;;1.90;0.60;;;;;;;12.85;59.92;99591.97;5040411;28;20080;-44
2023/08/25 04:23:42;;;;;;;2.47;0.70;;;;;;;12.85;61.43;99585.91;5042085;28;20102;-43
2023/08/25 04:26:09;;;;;;;2.05;0.73;;;;;;;12.85;61.06;99586.75;5044414;28;20680;-44
2023/08/25 04:28:36;;;;;;;2.35;0.80;;;;;;;12.85;61.48;99584.16;5046703;28;20505;-43
2023/08/25 04:31:02;;;;;;;1.48;0.63;;;;;;;12.85;61.34;99586.75;5044751;28;20114;-44
2023/08/25 04:33:29;;;;;;;3.03;0.60;;;;;;;12.85;60.46;99580.69;5044400;28;20075;-43
2023/08/25 04:35:56;;;;;;;3.97;0.82;;;;;;;12.84;60.63;99579.00;5046444;28;20055;-48
2023/08/25 04:38:22;;;;;;;5.75;0.98;;;;;;;12.83;60.35;99583.31;5043433;28;20060;-43
2023/08/25 04:40:49;;;;;;;2.10;0.70;;;;;;;12.83;61.74;99585.94;5046113;28;20053;-45
2023/08/25 04:43:16;;;;;;;3.17;0.70;;;;;;;12.84;60.85;99584.19;5046193;28;20064;-43
2023/08/25 04:45:42;;;;;;;3.63;0.90;;;;;;;12.84;60.58;99574.63;5039884;28;20049;-44
2023/08/25 04:48:09;;;;;;;1.40;0.80;;;;;;;12.85;61.03;99575.50;5036827;28;20044;-44
2023/08/25 04:50:36;;;;;;;3.17;0.80;;;;;;;12.88;61.78;99584.97;5043051;28;20497;-45
2023/08/25 04:53:03;;;;;;;2.85;0.80;;;;;;;12.85;61.12;99573.78;5045907;28;20405;-43
2023/08/25 04:55:29;;;;;;;2.05;1.02;;;;;;;12.89;61.10;99584.06;5047040;28;20055;-44
2023/08/25 04:57:56;;;;;;;3.85;1.10;;;;;;;12.89;62.11;99584.06;5043472;28;20056;-43
2023/08/25 05:00:23;;;;;;;2.53;1.15;;;;;;;12.91;62.21;99584.91;5042669;28;20076;-45
2023/08/25 05:02:49;;;;;;;6.75;0.68;;;;;;;12.90;61.85;99589.25;5045783;28;20041;-43
2023/08/25 05:05:17;;;;;;;2.67;1.20;;;;;;;12.92;61.36;99592.69;5042217;28;20110;-44
2023/08/25 05:07:44;;;;;;;2.65;1.33;;;;;;;12.94;61.28;99590.06;5041985;28;20563;-47
2023/08/25 05:10:11;;;;;;;3.47;1.30;;;;;;;12.95;61.11;99592.63;5042937;28;20077;-44
2023/08/25 05:12:39;;;;;;;7.50;2.35;;;;;;;12.96;62.04;99588.28;5044304;28;20535;-44
2023/08/25 05:15:08;;;;;;;6.63;1.50;;;;;;;12.96;61.07;99583.06;5038676;28;20132;-44
2023/08/25 05:17:34;;;;;;;2.28;0.73;;;;;;;12.95;62.22;99581.38;5044630;28;20059;-45
2023/08/25 05:20:01;;;;;;;5.47;1.20;;;;;;;12.96;61.90;99577.88;5044647;28;20559;-44
2023/08/25 05:22:28;;;;;;;4.47;0.90;;;;;;;12.96;62.45;99568.34;5040796;28;20048;-44
2023/08/25 05:24:55;;;;;;;3.42;0.93;;;;;;;12.98;61.58;99570.91;5042405;28;20074;-44
2023/08/25 05:27:21;;;;;;;2.55;1.00;;;;;;;13.00;62.46;99563.94;5042927;28;20524;-46
2023/08/25 05:29:49;;;;;;;6.85;1.58;;;;;;;13.02;61.42;99572.56;5044565;28;20418;-50
2023/08/25 05:32:15;;;;;;;3.95;1.00;;;;;;;13.05;62.18;99577.72;5046405;28;20056;-46
2023/08/25 05:34:42;;;;;;;2.83;1.05;;;;;;;13.07;61.15;99583.72;5043182;28;20045;-45
2023/08/25 05:37:09;;;;;;;5.82;1.20;;;;;;;13.08;61.90;99577.63;5042479;28;20094;-44
2023/08/25 05:39:36;;;;;;;4.25;1.00;;;;;;;13.09;61.48;99584.56;5044978;28;20127;-46
2023/08/25 05:42:02;;;;;;;4.47;1.42;;;;;;;13.09;61.46;99579.34;5041168;28;20065;-45
2023/08/25 05:44:29;;;;;;;2.55;0.65;;;;;;;13.08;62.14;99580.22;5041350;28;20494;-43
2023/08/25 05:46:57;;;;;;;3.70;0.73;;;;;;;13.07;61.20;99588.91;5043613;28;20045;-47
2023/08/25 05:49:23;;;;;;;2.75;0.98;;;;;;;13.07;62.71;99588.06;5044854;28;20071;-44
2023/08/25 05:51:50;;;;;;;3.28;0.70;;;;;;;13.06;62.42;99589.81;5046833;28;20045;-44
2023/08/25 05:54:18;;;;;;;2.70;1.15;;;;;;;13.08;62.68;99587.19;5046994;28;20110;-43
2023/08/25 05:56:44;;;;;;;3.10;1.20;;;;;;;13.08;62.01;99588.03;5045846;28;20045;-44
2023/08/25 05:59:11;;;;;;;1.75;0.73;;;;;;;13.08;62.16;99588.03;5048225;28;20445;-44
2023/08/25 06:01:38;;;;;;;2.72;0.50;;;;;;;13.10;61.98;99583.66;5045022;28;20049;-43
2023/08/25 06:04:05;;;;;;;4.57;0.85;;;;;;;13.13;61.62;99590.53;5042302;28;20110;-44
2023/08/25 06:06:32;;;;;;;3.83;1.08;;;;;;;13.15;61.71;99583.56;5047232;28;20045;-43
2023/08/25 06:08:58;;;;;;;4.15;1.05;;;;;;;13.18;61.60;99578.31;5049278;28;20057;-45
2023/08/25 06:11:25;;;;;;;1.95;0.77;;;;;;;13.19;62.76;99577.41;5047264;28;20047;-47
2023/08/25 06:13:52;;;;;;;3.70;1.17;;;;;;;13.21;62.61;99580.81;5045820;28;20111;-47
2023/08/25 06:16:18;;;;;;;2.50;0.90;;;;;;;13.24;61.63;99578.16;5045213;28;20057;-45
2023/08/25 06:18:45;;;;;;;2.03;0.80;;;;;;;13.26;62.21;99575.53;5050023;28;20066;-43
2023/08/25 06:21:12;;;;;;;3.67;0.70;;;;;;;13.30;62.74;99571.97;5049633;28;20045;-41
2023/08/25 06:23:39;;;;;;;4.40;1.48;;;;;;;13.34;62.69;99576.22;5049286;28;20102;-42
2023/08/25 06:26:06;;;;;;;2.47;1.08;;;;;;;13.40;62.99;99566.59;5047381;28;20049;-42
2023/08/25 06:28:33;;;;;;;3.53;1.02;;;;;;;13.49;62.34;99566.41;5045715;28;20083;-42
2023/08/25 06:31:01;;;;;;;3.92;1.15;;;;;;;13.57;62.03;99564.47;5046631;28;20052;-44
2023/08/25 06:33:31;;;;;;;2.72;0.93;;;;;;;13.68;62.13;99568.59;5048701;28;20041;-43
2023/08/25 06:35:58;;;;;;;1.67;0.70;;;;;;;13.78;62.53;99562.25;5046613;28;20163;-43
2023/08/25 06:38:25;;;;;;;3.60;0.82;;;;;;;13.92;62.53;99564.56;5049153;28;20106;-42
2023/08/25 06:40:53;;;;;;;2.05;1.02;;;;;;;14.06;62.33;99566.81;5043700;28;20128;-49
2023/08/25 06:43:22;;;;;;;2.17;0.73;;;;;;;14.22;62.29;99569.03;5045570;28;20049;-43
2023/08/25 06:45:49;;;;;;;1.98;0.75;;;;;;;14.37;61.87;99568.63;5041083;28;20064;-43
2023/08/25 06:48:15;;;;;;;2.15;0.80;;;;;;;14.53;62.21;99566.44;5045733;28;20063;-43
2023/08/25 06:50:42;;;;;;;2.22;0.75;;;;;;;14.71;61.77;99571.22;5047921;28;20123;-45
2023/08/25 06:53:09;;;;;;;3.08;1.67;;;;;;;14.86;62.11;99568.19;5045626;28;20098;-48
2023/08/25 06:55:35;;;;;;;2.13;0.85;;;;;;;15.07;62.31;99571.13;5050070;28;20052;-47
2023/08/25 06:58:02;;;;;;;1.90;1.13;;;;;;;15.27;61.71;99574.88;5053390;28;20386;-44
2023/08/25 07:00:29;;;;;;;2.67;0.77;;;;;;;15.45;61.87;99580.44;5043943;28;20061;-44
2023/08/25 07:02:56;;;;;;;5.65;0.90;;;;;;;15.66;61.21;99579.78;5041823;28;20555;-44
2023/08/25 07:05:24;;;;;;;2.72;0.80;;;;;;;15.89;61.39;99582.56;5044640;28;20053;-44
2023/08/25 07:07:51;;;;;;;1.95;0.82;;;;;;;16.10;60.80;99588.88;5044944;28;20119;-43
2023/08/25 07:10:20;;;;;;;3.72;1.25;;;;;;;16.32;60.31;99593.38;5043237;28;20456;-47
2023/08/25 07:12:47;;;;;;;2.85;1.00;;;;;;;16.61;60.23;99594.13;5044492;28;20055;-43
2023/08/25 07:15:14;;;;;;;2.83;1.05;;;;;;;17.02;60.29;99600.53;5048116;28;20122;-46
2023/08/25 07:17:41;;;;;;;5.53;1.60;;;;;;;17.48;59.83;99590.13;5048314;28;20086;-44
2023/08/25 07:20:08;;;;;;;2.72;0.98;;;;;;;18.06;59.46;99593.06;5045895;28;20076;-45
2023/08/25 07:22:35;;;;;;;2.13;1.13;;;;;;;18.45;57.88;99581.88;5036478;28;20049;-44
2023/08/25 07:25:02;;;;;;;2.55;2.08;;;;;;;18.87;58.02;99587.06;5044355;28;20577;-45
2023/08/25 07:27:29;;;;;;;2.45;1.10;;;;;;;19.35;56.89;99586.69;5044611;28;20413;-42
2023/08/25 07:29:57;;;;;;;3.15;0.80;;;;;;;19.49;55.58;99580.78;5043390;28;20049;-43
2023/08/25 07:32:24;;;;;;;4.90;1.08;;;;;;;19.83;55.52;99580.94;5042383;28;20382;-44
2023/08/25 07:34:55;;;;;;;2.58;1.13;;;;;;;20.43;54.88;99585.00;5044401;28;20140;-46
2023/08/25 07:37:22;;;;;;;4.05;0.60;;;;;;;21.06;54.16;99588.75;5044859;28;20165;-43
2023/08/25 07:39:51;;;;;;;5.75;0.82;;;;;;;21.56;53.59;99586.06;5046265;28;20049;-44
2023/08/25 07:42:19;;;;;;;4.13;1.27;;;;;;;22.04;52.58;99590.41;5042284;28;20052;-44
2023/08/25 07:44:47;;;;;;;2.95;0.73;;;;;;;22.54;51.17;99579.59;5045285;28;20040;-44
2023/08/25 07:47:13;;;;;;;4.75;0.75;;;;;;;23.05;51.24;99580.94;5042001;28;20057;-43
2023/08/25 07:49:40;;;;;;;4.40;0.60;;;;;;;23.54;50.10;99570.84;5042962;28;20126;-45
2023/08/25 07:52:07;;;;;;;3.85;0.60;;;;;;;23.89;48.87;99572.13;5045128;28;20051;-43
2023/08/25 07:54:34;;;;;;;3.38;0.80;;;;;;;24.03;48.36;99575.63;5042500;28;24636;-45
2023/08/25 07:57:00;;;;;;;3.35;0.85;;;;;;;23.70;48.04;99570.69;5045598;28;20346;-45
2023/08/25 07:59:27;;;;;;;5.95;1.10;;;;;;;23.21;48.24;99564.94;5041966;28;20053;-43
2023/08/25 08:01:55;;;;;;;5.40;0.73;;;;;;;22.79;49.13;99559.63;5042095;28;20049;-46
2023/08/25 08:04:21;;;;;;;1.70;0.70;;;;;;;22.56;49.38;99574.25;5047578;28;20045;-45
2023/08/25 08:06:49;;;;;;;1.88;0.60;;;;;;;22.34;49.16;99573.72;5045650;28;20119;-45
2023/08/25 08:09:17;;;;;;;7.75;0.90;;;;;;;22.30;49.95;99569.59;5035649;28;20074;-45
2023/08/25 08:11:44;;;;;;;7.05;1.00;;;;;;;22.75;49.93;99563.41;5045603;28;20520;-44
2023/08/25 08:14:11;;;;;;;1.80;0.90;;;;;;;23.40;49.23;99562.97;5044322;28;20076;-43
2023/08/25 08:16:37;;;;;;;2.40;1.52;;;;;;;23.86;48.09;99559.97;5043990;28;20623;-46
2023/08/25 08:19:05;;;;;;;4.90;0.85;;;;;;;24.38;48.21;99565.34;5041499;28;20132;-44
2023/08/25 08:21:32;;;;;;;2.22;0.75;;;;;;;24.96;47.46;99564.03;5038281;28;20107;-44
2023/08/25 08:23:58;;;;;;;3.15;0.95;;;;;;;25.53;45.96;99568.88;5032472;28;20040;-47
2023/08/25 08:26:26;;;;;;;2.28;0.75;;;;;;;25.86;45.54;99562.03;5039833;28;20524;-43
2023/08/25 08:28:52;;;;;;;2.40;1.08;;;;;;;26.26;44.66;99557.31;5039254;28;20099;-46
2023/08/25 08:31:19;;;;;;;3.88;1.23;;;;;;;26.61;43.84;99551.09;5035047;28;20045;-47
2023/08/25 08:33:47;;;;;;;3.58;0.80;;;;;;;26.78;43.77;99549.78;5041883;28;20131;-45
2023/08/25 08:36:16;;;;;;;1.63;0.43;;;;;;;26.77;42.69;99555.19;5044623;28;20067;-46
2023/08/25 08:38:42;;;;;;;4.95;0.70;;;;;;;26.40;43.13;99553.63;5046120;28;20051;-46
2023/08/25 08:41:10;;;;;;;3.65;0.88;;;;;;;25.96;43.19;99566.63;5038195;28;20826;-46
2023/08/25 08:43:41;;;;;;;1.25;0.80;;;;;;;25.44;43.14;99566.88;5040473;28;20037;-44
2023/08/25 08:46:10;;;;;;;2.78;0.95;;;;;;;25.05;44.13;99573.16;5037985;28;20080;-49
2023/08/25 08:48:37;;;;;;;2.25;0.75;;;;;;;24.85;44.86;99562.16;5045020;28;20053;-46
2023/08/25 08:51:07;;;;;;;2.47;0.80;;;;;;;24.95;45.22;99572.13;5040455;28;20128;-45
2023/08/25 08:53:35;;;;;;;2.72;0.90;;;;;;;25.44;45.10;99566.88;5042479;28;20041;-47
2023/08/25 08:56:03;;;;;;;1.88;0.88;;;;;;;25.96;44.19;99561.31;5045936;28;20144;-46
2023/08/25 08:58:32;;;;;;;2.63;0.90;;;;;;;26.02;43.29;99566.19;5041999;28;20055;-49
2023/08/25 09:01:00;;;;;;;1.65;1.10;;;;;;;25.79;43.45;99566.09;5045023;28;20052;-46
2023/08/25 09:03:34;;;;;;;3.80;0.80;;;;;;;25.51;43.56;99568.13;5043222;28;20075;-45
2023/08/25 09:06:03;;;;;;;2.33;0.70;;;;;;;25.39;44.16;99556.59;5045463;28;20139;-43
2023/08/25 09:08:32;;;;;;;2.75;0.88;;;;;;;25.65;44.14;99557.38;5040730;28;20052;-43
2023/08/25 09:11:00;;;;;;;3.28;0.90;;;;;;;25.96;43.84;99550.72;5039844;28;20041;-50
2023/08/25 09:13:31;;;;;;;4.30;0.68;;;;;;;26.23;43.87;99544.28;5034131;28;20041;-47
2023/08/25 09:15:58;;;;;;;4.18;0.85;;;;;;;26.63;43.37;99538.56;5033025;28;21064;-46
2023/08/25 09:18:33;;;;;;;2.10;0.60;;;;;;;27.08;42.47;99536.84;5036513;28;20061;-46
2023/08/25 09:21:03;;;;;;;2.20;0.65;;;;;;;27.49;41.15;99538.91;5027711;28;20100;-45
2023/08/25 09:23:30;;;;;;;3.00;1.10;;;;;;;27.87;41.49;99537.56;5037167;28;20049;-49
2023/08/25 09:26:03;;;;;;;1.20;0.45;;;;;;;28.22;40.89;99541.72;5038018;28;20488;-46
2023/08/25 09:28:36;;;;;;;2.15;0.73;;;;;;;28.45;39.93;99541.59;5042471;28;20055;-47
2023/08/25 09:31:03;;;;;;;2.13;0.55;;;;;;;28.50;39.26;99538.50;5038982;28;20064;-47
2023/08/25 09:33:32;;;;;;;2.00;0.30;;;;;;;28.33;39.14;99531.97;5047403;28;20056;-45
2023/08/25 09:36:02;;;;;;;3.20;0.68;;;;;;;28.16;38.61;99531.56;5045836;28;20052;-44
2023/08/25 09:38:30;;;;;;;3.05;1.00;;;;;;;28.04;39.21;99544.13;5038485;28;20053;-45
2023/08/25 09:41:02;;;;;;;2.22;0.60;;;;;;;28.01;39.49;99538.22;5040687;28;20049;-44
2023/08/25 09:43:30;;;;;;;3.15;0.95;;;;;;;28.07;39.24;99532.38;5043452;28;20056;-46
2023/08/25 09:45:57;;;;;;;1.00;0.50;;;;;;;28.26;39.18;99525.47;5041679;28;20056;-45
2023/08/25 09:48:25;;;;;;;2.38;0.70;;;;;;;28.52;39.60;99519.72;5034790;28;20057;-44
2023/08/25 09:50:55;;;;;;;2.40;0.50;;;;;;;28.80;38.17;99518.16;5037959;28;20119;-48
2023/08/25 09:53:26;;;;;;;3.25;0.60;;;;;;;28.98;37.91;99521.03;5041442;28;20053;-47
2023/08/25 09:56:01;;;;;;;2.03;0.70;;;;;;;29.07;37.01;99529.16;5039007;28;20186;-46
2023/08/25 09:58:28;;;;;;;2.08;0.90;;;;;;;29.05;36.96;99520.50;5035081;28;20057;-46
2023/08/25 10:00:55;;;;;;;2.17;0.43;;;;;;;29.09;36.37;99524.56;5038452;28;20045;-45
2023/08/25 10:03:22;;;;;;;3.65;0.98;;;;;;;29.16;36.96;99528.38;5037661;28;20118;-43
2023/08/25 10:05:50;;;;;;;1.30;1.10;;;;;;;29.17;36.69;99529.22;5043370;28;20045;-46
2023/08/25 10:08:18;;;;;;;1.83;0.63;;;;;;;29.20;36.88;99534.25;5036666;28;20135;-46
2023/08/25 10:10:45;;;;;;;3.28;0.60;;;;;;;29.15;35.90;99537.34;5038076;28;20048;-46
2023/08/25 10:13:14;;;;;;;2.97;0.90;;;;;;;29.13;36.48;99544.63;5041697;28;20149;-45
2023/08/25 10:15:45;;;;;;;2.15;0.70;;;;;;;29.12;36.85;99543.78;5046810;28;20124;-45
2023/08/25 10:18:12;;;;;;;2.35;0.65;;;;;;;29.17;36.90;99534.56;5043914;28;20056;-45
2023/08/25 10:20:40;;;;;;;1.27;0.73;;;;;;;29.30;36.20;99529.78;5042502;28;20528;-45
2023/08/25 10:23:08;;;;;;;3.30;0.82;;;;;;;29.46;36.91;99529.25;5047805;28;20048;-46
2023/08/25 10:25:38;;;;;;;0.98;0.70;;;;;;;29.66;36.77;99533.75;5044542;28;20053;-51
2023/08/25 10:28:06;;;;;;;;;;;;;;;29.82;37.11;99533.19;5042870;28;20044;-47
2023/08/25 10:30:34;;;;;;;2.05;0.43;;;;;;;29.98;35.95;99538.78;5046241;28;20014;-47
2023/08/25 10:33:08;;;;;;;5.10;0.85;;;;;;;30.01;35.48;99538.50;5048764;28;20087;-44
2023/08/25 10:35:45;;;;;;;2.60;0.60;;;;;;;30.04;35.30;99536.50;5048762;28;20045;-45
2023/08/25 10:40:57;;;;;;;1.83;0.75;;;;;;;29.71;34.50;99527.00;5079874;27;20973;-45
2023/08/25 10:43:29;;;;;;;1.52;0.88;;;;;;;29.52;34.92;99530.50;5016945;28;20049;-45
2023/08/25 10:46:08;;;;;;;2.28;0.95;;;;;;;29.28;34.33;99520.25;5014353;28;20054;-45
2023/08/25 10:48:37;;;;;;;2.88;0.80;;;;;;;28.98;34.41;99521.03;5017326;28;20073;-46
2023/08/25 10:51:08;;;;;;;2.20;0.75;;;;;;;28.68;34.48;99509.44;5042741;28;20130;-47
2023/08/25 10:56:25;;;;;;;2.47;1.38;;;;;;;28.57;34.16;99507.69;5060952;27;20905;-47
2023/08/25 10:59:12;;;;;;;3.70;1.40;;;;;;;28.51;34.74;99502.06;5053850;28;20120;-44
2023/08/25 11:04:27;;;;;;;2.17;0.55;;;;;;;28.65;34.74;99504.38;5079204;27;20389;-47
2023/08/25 11:06:57;;;;;;;3.80;0.52;;;;;;;28.80;35.53;99504.81;5035445;28;20084;-46
2023/08/25 11:14:42;;;;;;;5.15;2.25;;;;;;;29.46;34.75;99499.06;5050687;27;20404;-47
2023/08/25 11:17:09;;;;;;;4.43;1.63;;;;;;;29.45;34.34;99500.03;5015759;28;20053;-44
2023/08/25 11:19:39;;;;;;;2.38;1.73;;;;;;;29.42;35.15;99506.50;5017796;28;20100;-44
2023/08/25 11:22:10;;;;;;;2.72;2.00;;;;;;;29.44;34.96;99504.53;5013696;28;20041;-43
2023/08/25 11:24:38;;;;;;;2.65;1.85;;;;;;;29.37;34.56;99503.38;5034254;28;20068;-45
2023/08/25 11:27:10;;;;;;;1.67;0.63;;;;;;;29.26;33.76;99507.03;5036652;28;20464;-48
2023/08/25 11:29:39;;;;;;;4.43;1.95;;;;;;;29.09;34.17;99500.56;5037963;28;20482;-45
2023/08/25 11:32:11;;;;;;;2.03;1.83;;;;;;;28.89;34.02;99505.84;5033615;28;20969;-44
2023/08/25 11:34:38;;;;;;;1.88;1.77;;;;;;;28.68;34.22;99500.59;5042948;28;20049;-45
2023/08/25 11:37:04;;;;;;;4.40;3.08;;;;;;;28.52;35.32;99504.59;5039178;28;20052;-47
2023/08/25 11:39:31;;;;;;;4.38;1.90;;;;;;;28.42;35.67;99503.72;5035939;28;20049;-46
2023/08/25 11:41:58;;;;;;;2.00;1.80;;;;;;;28.35;35.51;99500.75;5039173;28;20045;-45
2023/08/25 11:44:25;;;;;;;2.30;2.10;;;;;;;28.16;35.67;99504.13;5038947;28;20052;-44
2023/08/25 11:46:53;;;;;;;4.22;1.98;;;;;;;28.08;35.22;99494.13;5036881;28;20041;-43
2023/08/25 11:49:26;;;;;;;1.77;1.65;;;;;;;27.89;35.29;99506.34;5034856;28;20045;-46
2023/08/25 11:51:53;;;;;;;2.75;1.98;;;;;;;27.59;35.56;99498.13;5038505;28;20052;-46
2023/08/25 11:54:20;;;;;;;2.53;1.88;;;;;;;27.39;35.58;99497.13;5038153;28;20099;-47